createdAt,value
2018-05-10T00:01:33.920Z,17.69
2018-05-10T00:03:59.532Z,17.65
2018-05-10T00:06:25.277Z,17.57
2018-05-10T00:08:50.831Z,17.55
2018-05-10T00:11:16.399Z,17.48
2018-05-10T00:13:42.113Z,17.47
2018-05-10T00:16:07.878Z,17.51
2018-05-10T00:18:33.510Z,17.65
2018-05-10T00:20:59.277Z,17.72
2018-05-10T00:23:24.860Z,17.82
2018-05-10T00:25:50.420Z,17.71
2018-05-10T00:28:16.167Z,17.80
2018-05-10T00:30:41.897Z,17.72
2018-05-10T00:33:07.565Z,17.78
2018-05-10T00:35:33.184Z,17.82
2018-05-10T00:37:58.961Z,17.83
2018-05-10T00:40:24.513Z,17.81
2018-05-10T00:42:50.322Z,17.82
2018-05-10T00:45:16.164Z,17.82
2018-05-10T00:47:41.741Z,17.82
2018-05-10T00:50:07.421Z,17.85
2018-05-10T00:52:33.148Z,17.76
2018-05-10T00:54:58.721Z,17.94
2018-05-10T00:57:24.336Z,17.88
2018-05-10T00:59:50.075Z,17.86
2018-05-10T01:02:15.669Z,17.83
2018-05-10T01:04:41.387Z,18.03
2018-05-10T01:07:07.055Z,18.18
2018-05-10T01:09:32.790Z,18.19
2018-05-10T01:11:58.372Z,18.18
2018-05-10T01:14:24.184Z,18.28
2018-05-10T01:16:49.803Z,18.30
2018-05-10T01:19:15.358Z,18.04
2018-05-10T01:21:41.100Z,17.86
2018-05-10T01:24:06.711Z,17.79
2018-05-10T01:26:32.281Z,17.73
2018-05-10T01:28:58.159Z,17.63
2018-05-10T01:31:23.709Z,17.65
2018-05-10T01:33:49.620Z,17.63
2018-05-10T01:36:15.177Z,17.61
2018-05-10T01:38:40.751Z,17.58
2018-05-10T01:41:06.582Z,17.46
2018-05-10T01:43:32.159Z,17.44
2018-05-10T01:45:57.781Z,17.31
2018-05-10T01:48:23.551Z,17.23
2018-05-10T01:50:49.114Z,17.33
2018-05-10T01:53:14.851Z,17.38
2018-05-10T01:55:40.425Z,17.41
2018-05-10T01:58:06.592Z,17.45
2018-05-10T02:00:32.373Z,17.51
2018-05-10T02:02:58.196Z,17.44
2018-05-10T02:05:23.769Z,17.33
2018-05-10T09:33:44.907Z,17.30
2018-05-10T09:36:10.653Z,17.36
2018-05-10T09:38:36.231Z,16.53
2018-05-10T09:41:02.031Z,16.33
2018-05-10T09:43:27.817Z,16.08
2018-05-10T09:45:53.577Z,16.14
2018-05-10T09:48:19.201Z,16.37
2018-05-10T09:50:44.830Z,16.00
2018-05-10T09:53:10.629Z,16.12
2018-05-10T09:55:36.416Z,16.37
2018-05-10T09:58:02.002Z,16.14
2018-05-10T10:00:30.661Z,16.06
2018-05-10T10:02:56.375Z,15.96
2018-05-10T10:05:21.955Z,15.95
2018-05-10T10:07:47.764Z,16.16
2018-05-10T10:10:13.453Z,16.03
2018-05-10T10:12:39.024Z,15.97
2018-05-10T10:15:05.084Z,15.87
2018-05-10T10:17:30.734Z,15.87
2018-05-10T10:19:57.528Z,16.09
2018-05-10T10:22:23.234Z,15.94
2018-05-10T10:24:48.798Z,15.69
2018-05-10T10:27:14.398Z,15.81
2018-05-10T10:29:40.381Z,15.79
2018-05-10T10:32:06.149Z,15.62
2018-05-10T10:34:31.881Z,15.68
2018-05-10T10:36:57.379Z,15.72
2018-05-10T10:39:23.142Z,15.70
2018-05-10T10:41:48.864Z,15.82
2018-05-10T10:44:14.489Z,15.76
2018-05-10T10:46:40.232Z,15.51
2018-05-10T10:49:05.802Z,15.69
2018-05-10T10:51:31.357Z,15.83
2018-05-10T10:53:57.219Z,15.63
2018-05-10T10:56:22.659Z,15.68
2018-05-10T10:58:48.303Z,15.84
2018-05-10T11:01:14.369Z,15.66
2018-05-10T11:03:39.936Z,15.79
2018-05-10T11:06:05.536Z,15.64
2018-05-10T11:08:31.410Z,15.76
2018-05-10T11:10:57.004Z,15.56
2018-05-10T11:13:22.587Z,15.47
2018-05-10T11:15:48.337Z,15.58
2018-05-10T11:18:13.969Z,15.61
2018-05-10T11:20:39.525Z,15.64
2018-05-10T11:23:05.413Z,15.70
2018-05-10T11:25:31.048Z,15.77
2018-05-10T11:27:58.092Z,15.59
2018-05-10T11:30:23.825Z,15.50
2018-05-10T11:32:49.482Z,15.36
2018-05-10T11:35:15.064Z,15.34
2018-05-10T11:37:40.821Z,15.40
2018-05-10T11:40:06.413Z,15.38
2018-05-10T11:42:31.975Z,15.30
2018-05-10T11:44:58.181Z,15.24
2018-05-10T11:47:23.762Z,15.39
2018-05-10T11:49:49.619Z,15.32
2018-05-10T11:52:15.372Z,15.07
2018-05-10T11:54:41.156Z,15.34
2018-05-10T11:57:06.730Z,15.15
2018-05-10T11:59:32.481Z,15.21
2018-05-10T12:01:58.056Z,15.04
2018-05-10T12:04:23.622Z,15.04
2018-05-10T12:06:49.348Z,14.98
2018-05-10T12:09:15.074Z,14.91
2018-05-10T12:11:40.661Z,14.91
2018-05-10T12:14:06.488Z,14.76
2018-05-10T12:16:32.071Z,14.71
2018-05-10T12:18:57.791Z,14.57
2018-05-10T12:21:23.368Z,14.38
2018-05-10T12:23:48.929Z,14.39
2018-05-10T12:26:14.722Z,14.31
2018-05-10T12:28:40.279Z,14.56
2018-05-10T12:31:05.908Z,14.34
2018-05-10T12:33:32.352Z,14.36
2018-05-10T12:35:57.948Z,14.32
2018-05-10T12:38:24.773Z,14.29
2018-05-10T12:40:50.521Z,14.19
2018-05-10T12:43:16.176Z,14.22
2018-05-10T12:45:41.982Z,14.48
2018-05-10T12:48:07.790Z,14.15
2018-05-10T12:50:33.389Z,14.08
2018-05-10T12:52:59.796Z,14.07
2018-05-10T12:55:25.564Z,14.03
2018-05-10T12:57:51.231Z,13.94
2018-05-10T13:00:17.352Z,13.96
2018-05-10T13:02:43.003Z,14.10
2018-05-10T13:05:09.926Z,14.15
2018-05-10T13:07:35.644Z,14.26
2018-05-10T13:10:02.425Z,14.26
2018-05-10T13:12:28.093Z,14.19
2018-05-10T13:14:54.494Z,14.02
2018-05-10T13:17:20.102Z,13.95
2018-05-10T13:19:46.870Z,13.87
2018-05-10T13:22:12.499Z,13.67
2018-05-10T13:24:39.340Z,13.66
2018-05-10T13:27:05.008Z,13.45
2018-05-10T13:29:30.714Z,13.54
2018-05-10T13:31:57.099Z,13.43
2018-05-10T13:34:22.718Z,13.26
2018-05-10T13:36:49.397Z,13.22
2018-05-10T13:39:15.104Z,13.22
2018-05-10T13:41:41.108Z,13.23
2018-05-10T13:44:06.904Z,13.22
2018-05-10T13:46:32.621Z,13.46
2018-05-10T13:48:59.357Z,13.27
2018-05-10T13:51:25.430Z,13.28
2018-05-10T13:53:51.170Z,13.23
2018-05-10T13:56:18.681Z,13.34
2018-05-10T13:58:44.471Z,13.08
2018-05-10T14:01:10.955Z,13.18
2018-05-10T14:03:36.788Z,13.23
2018-05-10T14:06:02.645Z,13.12
2018-05-10T14:08:28.900Z,13.21
2018-05-10T14:10:54.716Z,13.33
2018-05-10T14:13:20.373Z,13.11
2018-05-10T14:15:46.119Z,13.35
2018-05-10T14:18:11.780Z,13.35
2018-05-10T14:20:37.395Z,13.33
2018-05-10T14:23:03.137Z,13.32
2018-05-10T14:25:28.878Z,13.49
2018-05-10T14:27:54.403Z,13.52
2018-05-10T14:30:20.524Z,13.57
2018-05-10T14:32:46.071Z,13.50
2018-05-10T14:35:11.639Z,13.69
2018-05-10T14:37:37.404Z,13.74
2018-05-10T14:40:02.985Z,13.69
2018-05-10T14:42:28.542Z,13.65
2018-05-10T14:44:54.266Z,13.55
2018-05-10T14:47:19.830Z,13.63
2018-05-10T14:49:45.412Z,13.60
2018-05-10T14:52:11.464Z,13.67
2018-05-10T14:54:37.028Z,13.54
2018-05-10T14:57:02.594Z,13.65
2018-05-10T14:59:28.360Z,13.53
2018-05-10T15:01:53.991Z,13.51
2018-05-10T15:04:19.551Z,13.72
2018-05-10T15:06:46.362Z,13.42
2018-05-10T15:09:12.170Z,13.41
2018-05-10T15:11:37.794Z,13.58
2018-05-10T15:14:03.661Z,13.82
2018-05-10T15:16:29.413Z,13.46
2018-05-10T15:18:55.027Z,13.55
2018-05-10T15:21:20.584Z,13.45
2018-05-10T15:23:46.504Z,13.37
2018-05-10T15:26:12.097Z,13.48
2018-05-10T15:28:37.656Z,13.30
2018-05-10T15:31:03.485Z,13.35
2018-05-10T15:33:29.206Z,13.35
2018-05-10T15:35:54.820Z,13.49
2018-05-10T15:38:20.571Z,13.72
2018-05-10T15:40:46.169Z,13.53
2018-05-10T15:43:11.759Z,13.42
2018-05-10T15:45:37.502Z,13.35
2018-05-10T15:48:03.133Z,13.27
2018-05-10T15:50:28.804Z,13.41
2018-05-10T15:52:54.584Z,13.43
2018-05-10T15:55:20.154Z,13.45
2018-05-10T15:57:45.803Z,13.52
2018-05-10T16:00:11.911Z,13.27
2018-05-10T16:02:37.486Z,13.38
2018-05-10T16:05:03.076Z,13.48
2018-05-10T16:07:28.919Z,13.41
2018-05-10T16:09:54.494Z,13.30
2018-05-10T16:12:20.096Z,13.39
2018-05-10T16:14:45.832Z,13.43
2018-05-10T16:17:11.652Z,13.26
2018-05-10T16:19:37.272Z,13.48
2018-05-10T16:22:02.841Z,13.30
2018-05-10T16:24:28.631Z,13.43
2018-05-10T16:26:54.397Z,13.34
2018-05-10T16:29:19.966Z,13.53
2018-05-10T16:31:45.728Z,13.41
2018-05-10T16:34:11.299Z,13.41
2018-05-10T16:36:36.867Z,13.57
2018-05-10T16:39:02.664Z,13.83
2018-05-10T16:41:28.285Z,13.88
2018-05-10T16:43:53.851Z,13.73
2018-05-10T16:46:19.664Z,13.69
2018-05-10T16:48:45.295Z,13.70
2018-05-10T16:51:10.890Z,13.80
2018-05-10T16:53:36.679Z,13.72
2018-05-10T16:56:02.324Z,13.68
2018-05-10T16:58:28.155Z,13.79
2018-05-10T17:00:54.260Z,13.78
2018-05-10T17:03:19.813Z,13.98
2018-05-10T17:05:45.400Z,14.03
2018-05-10T17:08:11.128Z,13.99
2018-05-10T17:10:36.736Z,13.94
2018-05-10T17:13:02.523Z,14.18
2018-05-10T17:15:28.119Z,14.13
2018-05-10T17:17:53.761Z,14.13
2018-05-10T17:20:19.598Z,14.12
2018-05-10T17:22:45.214Z,14.23
2018-05-10T17:25:10.763Z,14.28
2018-05-10T17:27:37.685Z,14.40
2018-05-10T17:30:03.479Z,14.33
2018-05-10T17:32:29.223Z,14.45
2018-05-10T17:34:54.961Z,14.63
2018-05-10T17:37:20.786Z,14.56
2018-05-10T17:39:46.371Z,14.53
2018-05-10T17:42:11.929Z,14.69
2018-05-10T17:44:37.746Z,14.64
2018-05-10T17:47:03.372Z,14.72
2018-05-10T17:49:29.117Z,14.55
2018-05-10T17:51:55.156Z,14.69
2018-05-10T17:54:20.739Z,14.65
2018-05-10T17:56:46.293Z,14.55
2018-05-10T17:59:12.038Z,14.76
2018-05-10T18:01:37.617Z,14.66
2018-05-10T18:04:03.183Z,14.60
2018-05-10T18:06:28.948Z,14.71
2018-05-10T18:08:54.592Z,14.57
2018-05-10T18:11:20.215Z,14.56
2018-05-10T18:13:46.153Z,14.37
2018-05-10T18:16:12.459Z,14.59
2018-05-10T18:18:38.166Z,14.66
2018-05-10T18:21:04.154Z,14.69
2018-05-10T18:23:29.892Z,14.57
2018-05-10T18:25:55.525Z,14.46
2018-05-10T18:28:21.109Z,14.57
2018-05-10T18:30:46.866Z,14.68
2018-05-10T18:33:13.494Z,14.70
2018-05-10T18:35:38.931Z,14.78
2018-05-10T18:38:04.608Z,14.90
2018-05-10T18:40:31.394Z,14.59
2018-05-10T18:42:56.986Z,14.42
2018-05-10T18:45:23.604Z,14.42
2018-05-10T18:47:49.369Z,14.52
2018-05-10T18:50:16.640Z,14.60
2018-05-10T18:52:42.587Z,14.32
2018-05-10T18:55:08.593Z,14.35
2018-05-10T18:57:35.323Z,14.41
2018-05-10T19:00:01.108Z,14.56
2018-05-10T19:02:26.701Z,14.60
2018-05-10T19:04:52.396Z,14.53
2018-05-10T19:07:19.348Z,14.47
2018-05-10T19:09:44.865Z,14.20
2018-05-10T19:12:10.634Z,14.37
2018-05-10T19:14:36.358Z,14.20
2018-05-10T19:17:01.923Z,14.12
2018-05-10T19:19:27.490Z,14.19
2018-05-10T19:21:53.267Z,14.30
2018-05-10T19:24:18.833Z,14.14
2018-05-10T19:26:44.409Z,14.04
2018-05-10T19:29:10.139Z,14.07
2018-05-10T19:31:35.719Z,14.11
2018-05-10T19:34:01.288Z,14.02
2018-05-10T19:36:27.075Z,14.07
2018-05-10T19:38:52.644Z,14.09
2018-05-10T19:41:18.646Z,14.03
2018-05-10T19:43:44.567Z,14.17
2018-05-10T19:46:10.168Z,14.09
2018-05-10T19:48:35.837Z,13.97
2018-05-10T19:51:01.651Z,14.05
2018-05-10T19:53:27.516Z,14.01
2018-05-10T19:55:53.084Z,14.19
2018-05-10T19:58:18.799Z,14.04
2018-05-10T20:00:44.376Z,14.02
2018-05-10T20:03:10.087Z,13.96
2018-05-10T20:05:35.654Z,13.90
2018-05-10T20:08:01.303Z,14.10
2018-05-10T20:10:27.202Z,13.97
2018-05-10T20:12:53.102Z,13.97
2018-05-10T20:15:18.971Z,14.04
2018-05-10T20:17:44.669Z,14.09
2018-05-10T20:20:10.815Z,13.91
2018-05-10T20:22:36.377Z,14.09
2018-05-10T20:25:02.243Z,13.97
2018-05-10T20:27:27.815Z,14.36
2018-05-10T20:29:53.571Z,14.28
2018-05-10T20:32:19.144Z,14.08
2018-05-10T20:34:44.906Z,13.99
2018-05-10T20:37:10.470Z,13.91
2018-05-10T20:39:36.036Z,14.30
2018-05-10T20:42:01.998Z,14.09
2018-05-10T20:44:27.575Z,13.93
2018-05-10T20:46:53.189Z,13.80
2018-05-10T20:49:19.000Z,13.78
2018-05-10T20:51:44.579Z,13.88
2018-05-10T20:54:10.345Z,13.86
2018-05-10T20:56:36.254Z,13.88
2018-05-10T20:59:01.848Z,14.03
2018-05-10T21:01:27.416Z,13.90
2018-05-10T21:03:53.136Z,13.85
2018-05-10T21:06:18.712Z,13.83
2018-05-10T21:08:44.291Z,13.96
2018-05-10T21:11:10.071Z,13.67
2018-05-10T21:13:35.697Z,13.73
2018-05-10T21:16:01.524Z,13.76
2018-05-10T21:18:27.358Z,13.72
2018-05-10T21:20:52.904Z,13.65
2018-05-10T21:23:18.469Z,13.55
2018-05-10T21:25:44.277Z,13.41
2018-05-10T21:28:09.922Z,13.60
2018-05-10T21:30:35.536Z,13.62
2018-05-10T21:33:01.643Z,13.41
2018-05-10T21:35:27.318Z,13.35
2018-05-10T21:37:54.949Z,13.48
2018-05-10T21:40:20.515Z,13.38
2018-05-10T21:42:46.145Z,13.31
2018-05-10T21:45:11.900Z,13.19
2018-05-10T21:47:37.496Z,13.26
2018-05-10T21:50:05.857Z,13.12
2018-05-10T21:52:32.673Z,13.21
2018-05-10T21:54:58.306Z,13.29
2018-05-10T21:57:23.882Z,13.24
2018-05-10T21:59:49.596Z,13.17
2018-05-10T22:02:15.180Z,13.12
2018-05-10T22:04:41.311Z,13.15
2018-05-10T22:07:06.958Z,13.13
2018-05-10T22:09:32.597Z,13.04
2018-05-10T22:11:58.424Z,13.10
2018-05-10T22:14:24.035Z,13.53
2018-05-10T22:16:49.673Z,13.65
2018-05-10T22:19:15.535Z,13.24
2018-05-10T22:21:41.167Z,13.01
2018-05-10T22:24:06.816Z,12.97
2018-05-10T22:26:32.612Z,12.82
2018-05-10T22:28:58.352Z,13.09
2018-05-10T22:31:23.913Z,13.00
2018-05-10T22:33:49.707Z,12.96
2018-05-10T22:36:15.268Z,13.42
2018-05-10T22:38:40.825Z,13.45
2018-05-10T22:41:06.604Z,13.33
2018-05-10T22:43:32.223Z,12.89
2018-05-10T22:45:57.854Z,12.77
2018-05-10T22:48:23.704Z,12.85
2018-05-10T22:50:49.273Z,12.83
2018-05-10T22:53:14.998Z,12.89
2018-05-10T22:55:40.545Z,12.69
2018-05-10T22:58:06.148Z,12.98
2018-05-10T23:00:32.039Z,13.21
2018-05-10T23:02:57.619Z,12.83
2018-05-10T23:05:23.176Z,13.04
2018-05-10T23:07:48.963Z,13.15
2018-05-10T23:10:14.542Z,12.84
2018-05-10T23:12:40.116Z,12.94
2018-05-10T23:15:05.961Z,13.45
2018-05-10T23:17:31.541Z,13.01
2018-05-10T23:19:57.368Z,13.14
2018-05-10T23:22:23.079Z,13.19
2018-05-10T23:24:48.675Z,13.07
2018-05-10T23:27:14.229Z,13.30
2018-05-10T23:29:40.076Z,12.92
2018-05-10T23:32:05.635Z,12.73
2018-05-10T23:34:31.648Z,12.92
2018-05-10T23:36:57.439Z,13.21
2018-05-10T23:39:23.205Z,12.82
2018-05-10T23:41:48.883Z,12.83
2018-05-10T23:44:14.639Z,13.08
2018-05-10T23:46:40.262Z,12.82
2018-05-10T23:49:05.888Z,13.35
2018-05-10T23:51:31.617Z,12.99
2018-05-10T23:53:57.340Z,13.11
2018-05-10T23:56:22.893Z,12.95
2018-05-10T23:58:48.663Z,12.88
